createdAt,value
2023-02-03T00:00:54.253Z,100708.48
2023-02-03T00:03:25.326Z,100707.48
2023-02-03T00:05:56.796Z,100709.89
2023-02-03T00:08:27.859Z,100705.31
2023-02-03T00:10:59.798Z,100700.89
2023-02-03T00:13:31.389Z,100697.65
2023-02-03T00:16:02.661Z,100690.47
2023-02-03T00:18:33.883Z,100691.55
2023-02-03T00:21:04.766Z,100699.07
2023-02-03T00:23:35.900Z,100697.90
2023-02-03T00:26:12.119Z,100702.64
2023-02-03T00:28:43.976Z,100706.02
2023-02-03T00:31:20.629Z,100703.05
2023-02-03T00:33:57.107Z,100703.25
2023-02-03T00:36:28.356Z,100703.80
2023-02-03T00:38:59.229Z,100703.35
2023-02-03T00:41:33.480Z,100705.77
2023-02-03T00:44:04.454Z,100711.20
2023-02-03T00:46:36.274Z,100715.42
2023-02-03T00:49:07.596Z,100719.35
2023-02-03T00:51:39.100Z,100725.11
2023-02-03T00:54:11.116Z,100730.89
2023-02-03T00:56:42.026Z,100733.17
2023-02-03T00:59:13.089Z,100736.31
2023-02-03T01:01:44.062Z,100729.99
2023-02-03T01:04:14.978Z,100729.45
2023-02-03T01:06:45.887Z,100733.46
2023-02-03T01:09:16.790Z,100732.64
2023-02-03T01:11:47.701Z,100733.21
2023-02-03T01:14:19.088Z,100734.52
2023-02-03T01:16:50.144Z,100739.89
2023-02-03T01:19:21.702Z,100742.05
2023-02-03T01:21:52.657Z,100740.98
2023-02-03T01:24:23.547Z,100740.08
2023-02-03T01:26:54.452Z,100735.98
2023-02-03T01:29:25.440Z,100738.61
2023-02-03T01:31:56.558Z,100735.15
2023-02-03T01:34:27.596Z,100733.73
2023-02-03T01:36:58.503Z,100735.04
2023-02-03T01:39:29.334Z,100739.22
2023-02-03T01:42:00.830Z,100742.33
2023-02-03T01:44:51.186Z,100737.19
2023-02-03T01:47:32.180Z,100728.50
2023-02-03T01:50:19.827Z,100728.42
2023-02-03T01:52:54.723Z,100717.88
2023-02-03T01:55:30.141Z,100715.56
2023-02-03T01:58:04.606Z,100716.04
2023-02-03T02:00:35.907Z,100718.23
2023-02-03T02:03:09.046Z,100719.80
2023-02-03T02:08:47.219Z,100720.67
2023-02-03T02:11:27.537Z,100716.52
2023-02-03T02:14:01.804Z,100716.79
2023-02-03T02:16:43.397Z,100708.14
2023-02-03T02:19:44.134Z,100705.29
2023-02-03T02:22:20.973Z,100700.07
2023-02-03T02:25:11.265Z,100697.86
2023-02-03T02:28:15.339Z,100695.16
2023-02-03T02:31:08.220Z,100695.27
2023-02-03T02:33:47.698Z,100694.94
2023-02-03T02:36:31.365Z,100696.60
2023-02-03T02:39:11.487Z,100690.46
2023-02-03T02:41:47.829Z,100679.98
2023-02-03T02:44:24.620Z,100679.08
2023-02-03T02:46:59.585Z,100679.64
2023-02-03T02:49:35.987Z,100680.20
2023-02-03T02:52:09.514Z,100683.92
2023-02-03T02:54:43.573Z,100686.48
2023-02-03T02:57:17.347Z,100689.92
2023-02-03T02:59:49.801Z,100688.60
2023-02-03T03:02:20.544Z,100686.08
2023-02-03T03:04:52.687Z,100682.35
2023-02-03T03:07:29.095Z,100683.70
2023-02-03T03:10:03.889Z,100687.91
2023-02-03T03:12:37.512Z,100690.94
2023-02-03T03:15:12.825Z,100686.85
2023-02-03T03:17:49.244Z,100685.88
2023-02-03T03:20:23.756Z,100686.56
2023-02-03T03:23:00.515Z,100689.97
2023-02-03T03:25:37.713Z,100693.88
2023-02-03T03:28:13.319Z,100692.09
2023-02-03T03:30:44.753Z,100691.46
2023-02-03T03:33:15.760Z,100689.01
2023-02-03T03:35:52.452Z,100683.88
2023-02-03T03:38:33.084Z,100676.86
2023-02-03T03:41:09.630Z,100675.56
2023-02-03T03:43:44.517Z,100670.92
2023-02-03T03:46:18.732Z,100669.16
2023-02-03T03:48:55.400Z,100670.25
2023-02-03T03:51:31.175Z,100670.99
2023-02-03T03:54:08.397Z,100672.57
2023-02-03T03:56:43.726Z,100669.91
2023-02-03T03:59:18.194Z,100671.12
2023-02-03T04:01:49.609Z,100672.35
2023-02-03T04:04:22.073Z,100672.41
2023-02-03T04:06:53.971Z,100677.00
2023-02-03T04:09:24.747Z,100678.70
2023-02-03T04:12:06.141Z,100675.73
2023-02-03T04:14:39.162Z,100672.44
2023-02-03T04:17:10.244Z,100676.55
2023-02-03T04:19:41.029Z,100679.83
2023-02-03T04:22:11.796Z,100677.38
2023-02-03T04:24:42.621Z,100677.12
2023-02-03T04:27:13.372Z,100676.70
2023-02-03T04:29:47.793Z,100675.60
2023-02-03T04:32:18.755Z,100676.89
2023-02-03T04:34:49.487Z,100676.83
2023-02-03T04:37:21.164Z,100678.02
2023-02-03T04:39:52.571Z,100679.29
2023-02-03T04:42:23.947Z,100677.85
2023-02-03T04:44:54.980Z,100671.75
2023-02-03T04:47:25.990Z,100673.99
2023-02-03T04:49:56.755Z,100671.59
2023-02-03T04:52:27.587Z,100669.53
2023-02-03T04:54:58.391Z,100668.98
2023-02-03T04:57:29.127Z,100668.77
2023-02-03T04:59:59.906Z,100665.15
2023-02-03T05:02:30.708Z,100663.61
2023-02-03T05:05:01.382Z,100659.20
2023-02-03T05:07:32.152Z,100651.27
2023-02-03T05:10:02.901Z,100653.76
2023-02-03T05:12:33.667Z,100650.52
2023-02-03T05:15:04.837Z,100650.30
2023-02-03T05:17:38.962Z,100646.73
2023-02-03T05:20:11.771Z,100642.52
2023-02-03T05:22:42.787Z,100643.70
2023-02-03T05:25:15.892Z,100639.70
2023-02-03T05:27:46.684Z,100634.83
2023-02-03T05:30:17.617Z,100635.64
2023-02-03T05:32:49.690Z,100631.24
2023-02-03T05:35:20.483Z,100632.91
2023-02-03T05:37:51.169Z,100631.23
2023-02-03T05:40:39.989Z,100626.71
2023-02-03T05:43:10.803Z,100624.48
2023-02-03T05:45:41.745Z,100626.77
2023-02-03T05:48:12.858Z,100624.07
2023-02-03T05:50:43.971Z,100628.11
2023-02-03T05:53:14.969Z,100623.23
2023-02-03T05:55:45.674Z,100622.54
2023-02-03T05:58:16.494Z,100621.52
2023-02-03T06:00:47.253Z,100619.84
2023-02-03T06:03:18.360Z,100620.66
2023-02-03T06:05:49.153Z,100623.73
2023-02-03T06:08:20.021Z,100620.95
2023-02-03T06:10:50.779Z,100619.88
2023-02-03T06:13:21.562Z,100619.64
2023-02-03T06:15:52.235Z,100616.23
2023-02-03T06:18:23.264Z,100614.77
2023-02-03T06:20:54.400Z,100610.33
2023-02-03T06:23:25.129Z,100602.83
2023-02-03T06:25:55.887Z,100597.20
2023-02-03T06:28:26.633Z,100597.11
2023-02-03T06:30:57.476Z,100596.20
2023-02-03T06:33:28.535Z,100592.93
2023-02-03T06:35:59.323Z,100589.50
2023-02-03T06:38:30.152Z,100583.88
2023-02-03T06:41:00.987Z,100578.95
2023-02-03T06:43:31.738Z,100572.23
2023-02-03T06:46:02.579Z,100574.71
2023-02-03T06:48:33.345Z,100572.58
2023-02-03T06:51:05.741Z,100562.04
2023-02-03T06:53:36.511Z,100561.84
2023-02-03T06:56:08.056Z,100554.79
2023-02-03T06:58:38.791Z,100550.95
2023-02-03T07:01:09.597Z,100547.45
2023-02-03T07:03:40.295Z,100539.67
2023-02-03T07:06:11.244Z,100534.89
2023-02-03T07:08:42.560Z,100530.17
2023-02-03T07:11:13.878Z,100529.89
2023-02-03T07:13:44.715Z,100523.75
2023-02-03T07:16:16.025Z,100511.39
2023-02-03T07:18:48.368Z,100504.41
2023-02-03T07:21:20.275Z,100501.35
2023-02-03T07:23:51.851Z,100491.23
2023-02-03T07:26:23.232Z,100483.40
2023-02-03T07:28:54.668Z,100481.24
2023-02-03T07:31:25.472Z,100478.77
2023-02-03T07:33:56.425Z,100476.23
2023-02-03T07:36:28.206Z,100474.16
2023-02-03T07:38:59.017Z,100476.69
2023-02-03T07:41:29.741Z,100475.02
2023-02-03T07:44:00.508Z,100469.85
2023-02-03T07:46:31.574Z,100464.60
2023-02-03T07:49:04.544Z,100459.67
2023-02-03T07:51:39.179Z,100450.52
2023-02-03T07:54:10.519Z,100445.08
2023-02-03T07:56:41.269Z,100439.77
2023-02-03T07:59:11.982Z,100436.18
2023-02-03T08:01:42.624Z,100423.53
2023-02-03T08:04:16.643Z,100421.79
2023-02-03T08:06:47.419Z,100423.05
2023-02-03T08:09:19.787Z,100420.23
2023-02-03T08:11:56.378Z,100420.09
2023-02-03T08:14:35.388Z,100410.96
2023-02-03T08:17:06.272Z,100414.20
2023-02-03T08:19:37.286Z,100413.79
2023-02-03T08:22:08.341Z,100401.60
2023-02-03T08:24:46.133Z,100397.40
2023-02-03T08:27:18.738Z,100395.80
2023-02-03T08:29:49.795Z,100397.42
2023-02-03T08:32:24.998Z,100400.54
2023-02-03T08:34:56.351Z,100395.59
2023-02-03T08:37:28.491Z,100389.33
2023-02-03T08:39:59.364Z,100388.30
2023-02-03T08:42:30.469Z,100375.20
2023-02-03T08:45:02.856Z,100367.02
2023-02-03T08:47:37.514Z,100364.81
2023-02-03T08:50:11.155Z,100356.81
2023-02-03T08:52:42.004Z,100354.90
2023-02-03T08:55:12.802Z,100354.48
2023-02-03T08:57:44.358Z,100352.88
2023-02-03T09:00:17.321Z,100345.52
2023-02-03T09:02:48.528Z,100338.05
2023-02-03T09:05:19.598Z,100333.69
2023-02-03T09:07:50.408Z,100328.81
2023-02-03T09:10:21.693Z,100323.76
2023-02-03T09:12:52.526Z,100323.08
2023-02-03T09:15:23.503Z,100315.92
2023-02-03T09:17:57.610Z,100315.24
2023-02-03T09:20:29.538Z,100314.05
2023-02-03T09:23:03.043Z,100314.36
2023-02-03T09:25:34.768Z,100308.21
2023-02-03T09:28:05.681Z,100298.65
2023-02-03T09:30:38.606Z,100291.47
2023-02-03T09:33:09.902Z,100282.11
2023-02-03T09:35:40.681Z,100272.52
2023-02-03T09:38:12.377Z,100270.09
2023-02-03T09:40:43.275Z,100267.00
2023-02-03T09:43:38.911Z,100261.17
2023-02-03T09:46:14.567Z,100253.98
2023-02-03T09:48:49.492Z,100243.31
2023-02-03T09:51:25.255Z,100236.40
2023-02-03T09:54:02.431Z,100236.27
2023-02-03T09:56:37.352Z,100225.92
2023-02-03T09:59:10.452Z,100218.80
2023-02-03T10:01:51.419Z,100215.55
2023-02-03T10:04:33.826Z,100203.97
2023-02-03T10:07:13.614Z,100200.02
2023-02-03T10:09:59.006Z,100187.22
2023-02-03T10:12:48.324Z,100182.96
2023-02-03T10:15:49.072Z,100182.20
2023-02-03T10:18:25.687Z,100175.46
2023-02-03T10:21:00.152Z,100166.45
2023-02-03T10:23:35.038Z,100163.14
2023-02-03T10:26:09.027Z,100156.77
2023-02-03T10:28:45.305Z,100146.81
2023-02-03T10:31:20.858Z,100140.98
2023-02-03T10:34:00.227Z,100128.02
2023-02-03T10:36:41.386Z,100116.52
2023-02-03T10:39:24.162Z,100114.86
2023-02-03T10:41:56.051Z,100114.09
2023-02-03T10:44:32.398Z,100106.75
2023-02-03T10:47:03.142Z,100098.25
2023-02-03T10:49:33.938Z,100092.19
2023-02-03T10:52:05.155Z,100084.73
2023-02-03T10:54:38.464Z,100073.36
2023-02-03T10:57:16.090Z,100066.52
2023-02-03T10:59:49.923Z,100057.03
2023-02-03T11:02:30.418Z,100043.13
2023-02-03T11:05:21.160Z,100044.45
2023-02-03T11:07:52.188Z,100027.84
2023-02-03T11:10:36.252Z,100014.27
2023-02-03T11:13:18.529Z,100000.40
2023-02-03T11:15:55.152Z,99986.48
2023-02-03T11:18:41.268Z,99978.48
2023-02-03T11:21:15.750Z,99967.68
2023-02-03T11:23:52.769Z,99958.77
2023-02-03T11:26:27.594Z,99953.75
2023-02-03T11:29:01.815Z,99946.18
2023-02-03T11:31:35.353Z,99935.91
2023-02-03T11:34:15.659Z,99922.55
2023-02-03T11:36:46.512Z,99915.58
2023-02-03T11:39:35.853Z,99905.81
2023-02-03T11:42:24.859Z,99897.81
2023-02-03T11:45:14.253Z,99886.08
2023-02-03T11:47:50.873Z,99880.98
2023-02-03T11:50:31.152Z,99882.85
2023-02-03T11:53:23.673Z,99884.41
2023-02-03T11:56:08.681Z,99874.45
2023-02-03T11:59:04.571Z,99869.60
2023-02-03T12:01:47.379Z,99869.02
2023-02-03T12:04:30.766Z,99858.30
2023-02-03T12:07:32.746Z,99844.73
2023-02-03T12:10:13.159Z,99843.20
2023-02-03T12:12:53.233Z,99840.66
2023-02-03T12:15:41.749Z,99829.68
2023-02-03T12:18:34.516Z,99829.70
2023-02-03T12:21:24.682Z,99818.84
2023-02-03T12:24:01.797Z,99811.42
2023-02-03T12:26:40.801Z,99806.12
2023-02-03T12:29:15.838Z,99797.29
2023-02-03T12:31:52.129Z,99796.23
2023-02-03T12:34:29.367Z,99786.58
2023-02-03T12:37:04.921Z,99776.80
2023-02-03T12:39:42.806Z,99776.27
2023-02-03T12:42:20.227Z,99770.17
2023-02-03T12:44:56.489Z,99766.96
2023-02-03T12:47:33.342Z,99755.16
2023-02-03T12:50:08.924Z,99743.04
2023-02-03T12:52:43.733Z,99735.84
2023-02-03T12:55:28.434Z,99725.05
2023-02-03T12:58:03.240Z,99713.40
2023-02-03T13:00:39.903Z,99697.98
2023-02-03T13:03:18.385Z,99693.73
2023-02-03T13:05:55.685Z,99685.40
2023-02-03T13:08:35.253Z,99683.73
2023-02-03T13:11:20.759Z,99668.04
2023-02-03T13:13:53.568Z,99660.34
2023-02-03T13:16:29.912Z,99652.85
2023-02-03T13:19:04.749Z,99637.06
2023-02-03T13:21:35.577Z,99626.20
2023-02-03T13:24:08.305Z,99623.77
2023-02-03T13:27:00.956Z,99613.94
2023-02-03T13:30:00.454Z,99602.56
2023-02-03T13:32:49.026Z,99591.15
2023-02-03T13:35:39.993Z,99581.15
2023-02-03T13:38:31.214Z,99574.88
2023-02-03T13:41:08.878Z,99563.33
2023-02-03T13:43:45.231Z,99553.09
2023-02-03T13:46:25.564Z,99544.56
2023-02-03T13:48:58.746Z,99545.70
2023-02-03T13:51:34.962Z,99541.09
2023-02-03T13:54:10.313Z,99536.83
2023-02-03T13:56:40.327Z,99531.91
2023-02-03T13:59:33.118Z,99528.98
2023-02-03T14:02:34.860Z,99528.66
2023-02-03T14:05:06.632Z,99525.52
2023-02-03T14:07:39.473Z,99512.15
2023-02-03T14:10:32.201Z,99507.59
2023-02-03T14:13:22.921Z,99499.89
2023-02-03T14:16:23.977Z,99488.09
2023-02-03T14:18:56.996Z,99477.78
2023-02-03T14:21:39.408Z,99476.40
2023-02-03T14:24:18.089Z,99472.66
2023-02-03T14:26:56.974Z,99464.02
2023-02-03T14:29:32.774Z,99461.61
2023-02-03T14:32:06.370Z,99461.90
2023-02-03T14:34:40.587Z,99451.27
2023-02-03T14:37:22.969Z,99443.48
2023-02-03T14:40:27.348Z,99445.98
2023-02-03T14:43:30.990Z,99431.07
2023-02-03T14:46:33.934Z,99432.30
2023-02-03T14:49:24.793Z,99433.20
2023-02-03T14:52:13.771Z,99426.08
2023-02-03T14:55:02.391Z,99424.18
2023-02-03T14:57:47.816Z,99420.98
2023-02-03T15:00:34.789Z,99418.27
2023-02-03T15:03:26.363Z,99412.52
2023-02-03T15:06:03.277Z,99405.24
2023-02-03T15:08:44.276Z,99406.41
2023-02-03T15:11:29.796Z,99397.11
2023-02-03T15:14:19.899Z,99394.20
2023-02-03T15:16:54.497Z,99390.16
2023-02-03T15:19:28.995Z,99384.14
2023-02-03T15:21:59.766Z,99378.33
2023-02-03T15:24:38.264Z,99375.52
2023-02-03T15:27:23.886Z,99374.02
2023-02-03T15:29:53.802Z,99367.64
2023-02-03T15:32:30.136Z,99365.30
2023-02-03T15:35:02.222Z,99362.96
2023-02-03T15:37:38.716Z,99359.27
2023-02-03T15:40:14.595Z,99357.29
2023-02-03T15:42:56.488Z,99357.98
2023-02-03T15:45:35.420Z,99351.10
2023-02-03T15:48:14.800Z,99339.81
2023-02-03T15:50:50.035Z,99341.48
2023-02-03T15:53:21.498Z,99331.08
2023-02-03T15:55:55.510Z,99333.23
2023-02-03T15:58:29.162Z,99322.79
2023-02-03T16:01:04.736Z,99321.80
2023-02-03T16:03:42.078Z,99318.77
2023-02-03T16:06:19.906Z,99313.71
2023-02-03T16:08:52.100Z,99315.40
2023-02-03T16:11:37.420Z,99311.70
2023-02-03T16:14:11.505Z,99312.73
2023-02-03T16:16:58.931Z,99310.09
2023-02-03T16:19:38.511Z,99306.63
2023-02-03T16:22:32.109Z,99302.42
2023-02-03T16:25:20.115Z,99296.70
2023-02-03T16:28:16.552Z,99294.20
2023-02-03T16:31:16.378Z,99289.02
2023-02-03T16:34:09.475Z,99287.55
2023-02-03T16:37:02.692Z,99281.07
2023-02-03T16:39:51.170Z,99281.30
2023-02-03T16:42:40.496Z,99276.60
2023-02-03T16:45:36.630Z,99274.41
2023-02-03T16:48:28.190Z,99272.02
2023-02-03T16:51:04.743Z,99268.34
2023-02-03T16:53:35.649Z,99271.04
2023-02-03T16:56:07.668Z,99260.49
2023-02-03T16:58:38.420Z,99261.34
2023-02-03T17:01:11.753Z,99260.47
2023-02-03T17:03:44.516Z,99265.64
2023-02-03T17:06:18.093Z,99266.80
2023-02-03T17:08:48.789Z,99265.78
2023-02-03T17:11:22.486Z,99263.30
2023-02-03T17:13:53.416Z,99259.67
2023-02-03T17:16:26.346Z,99257.19
2023-02-03T17:18:57.334Z,99261.40
2023-02-03T17:21:29.879Z,99267.96
2023-02-03T17:24:02.104Z,99267.14
2023-02-03T17:26:35.150Z,99269.87
2023-02-03T17:29:06.196Z,99269.39
2023-02-03T17:31:37.009Z,99272.77
2023-02-03T17:34:07.727Z,99275.93
2023-02-03T17:36:38.456Z,99275.88
2023-02-03T17:55:54.143Z,99295.42
2023-02-03T17:58:25.284Z,99288.20
2023-02-03T18:00:59.162Z,99287.55
2023-02-03T18:03:40.402Z,99291.06
2023-02-03T18:06:23.962Z,99283.09
2023-02-03T18:09:01.217Z,99289.83
2023-02-03T18:11:33.664Z,99294.35
2023-02-03T18:14:05.955Z,99293.20
2023-02-03T18:16:37.643Z,99298.77
2023-02-03T18:19:13.042Z,99304.20
2023-02-03T18:21:43.568Z,99307.61
2023-02-03T18:24:16.959Z,99310.16
2023-02-03T18:26:53.024Z,99316.43
2023-02-03T18:29:24.423Z,99318.01
2023-02-03T18:31:57.719Z,99315.70
2023-02-03T18:34:28.573Z,99318.65
2023-02-03T18:37:01.201Z,99321.58
2023-02-03T18:39:37.959Z,99325.62
2023-02-03T18:42:09.088Z,99331.15
2023-02-03T18:44:41.351Z,99332.54
2023-02-03T18:47:12.922Z,99329.15
2023-02-03T18:49:43.743Z,99334.06
2023-02-03T18:52:14.545Z,99342.67
2023-02-03T18:54:45.350Z,99342.84
2023-02-03T18:57:16.115Z,99343.51
2023-02-03T18:59:46.933Z,99333.77
2023-02-03T19:02:17.779Z,99338.99
2023-02-03T19:04:48.523Z,99346.38
2023-02-03T19:07:19.374Z,99345.52
2023-02-03T19:09:50.102Z,99344.46
2023-02-03T19:12:20.965Z,99346.98
2023-02-03T19:14:51.794Z,99349.70
2023-02-03T19:17:23.554Z,99353.40
2023-02-03T19:19:54.320Z,99358.61
2023-02-03T19:22:25.167Z,99360.46
2023-02-03T19:24:56.095Z,99357.95
2023-02-03T19:27:27.010Z,99350.68
2023-02-03T19:30:01.173Z,99351.67
2023-02-03T19:32:33.435Z,99357.70
2023-02-03T19:35:04.616Z,99364.05
2023-02-03T19:37:35.740Z,99362.80
2023-02-03T19:40:08.038Z,99352.67
2023-02-03T19:42:38.913Z,99348.47
2023-02-03T19:45:11.822Z,99351.66
2023-02-03T19:47:42.625Z,99359.84
2023-02-03T19:50:14.648Z,99361.98
2023-02-03T19:52:47.277Z,99367.67
2023-02-03T19:55:18.779Z,99381.62
2023-02-03T19:57:49.994Z,99377.45
2023-02-03T20:00:22.546Z,99375.95
2023-02-03T20:02:53.541Z,99380.30
2023-02-03T20:05:24.513Z,99382.48
2023-02-03T20:07:55.536Z,99388.69
2023-02-03T20:10:26.940Z,99386.16
2023-02-03T20:12:57.955Z,99394.56
2023-02-03T20:15:29.137Z,99397.77
2023-02-03T20:18:00.152Z,99388.16
2023-02-03T20:20:31.344Z,99379.44
2023-02-03T20:23:02.574Z,99385.02
2023-02-03T20:25:33.498Z,99388.07
2023-02-03T20:28:05.412Z,99402.02
2023-02-03T20:30:36.821Z,99418.87
2023-02-03T20:33:07.904Z,99424.63
2023-02-03T20:35:39.512Z,99418.45
2023-02-03T20:38:10.425Z,99422.60
2023-02-03T20:40:41.270Z,99420.49
2023-02-03T20:43:18.544Z,99425.55
2023-02-03T20:45:50.380Z,99429.29
2023-02-03T20:48:24.055Z,99426.41
2023-02-03T20:50:55.384Z,99424.56
2023-02-03T20:53:27.320Z,99419.20
2023-02-03T20:56:01.925Z,99417.44
2023-02-03T20:58:37.267Z,99418.46
2023-02-03T21:01:12.244Z,99419.81
2023-02-03T21:04:00.831Z,99422.85
2023-02-03T21:06:34.082Z,99429.48
2023-02-03T21:09:15.279Z,99437.91
2023-02-03T21:11:46.632Z,99442.66
2023-02-03T21:14:23.476Z,99453.48
2023-02-03T21:16:54.930Z,99465.84
2023-02-03T21:19:31.177Z,99472.00
2023-02-03T21:22:04.713Z,99471.77
2023-02-03T21:24:37.932Z,99471.83
2023-02-03T21:27:24.509Z,99470.89
2023-02-03T21:29:57.458Z,99474.63
2023-02-03T21:32:35.225Z,99482.02
2023-02-03T21:35:20.162Z,99486.22
2023-02-03T21:37:51.017Z,99494.27
2023-02-03T21:40:27.357Z,99493.77
2023-02-03T21:42:59.209Z,99498.05
2023-02-03T21:45:37.501Z,99493.58
2023-02-03T21:48:30.655Z,99504.80
2023-02-03T21:51:04.088Z,99512.52
2023-02-03T21:53:36.198Z,99513.64
2023-02-03T21:56:25.471Z,99516.19
2023-02-03T21:58:59.057Z,99517.73
2023-02-03T22:01:37.883Z,99525.83
2023-02-03T22:04:08.981Z,99527.82
2023-02-03T22:06:45.601Z,99530.16
2023-02-03T22:09:17.948Z,99533.23
2023-02-03T22:11:48.819Z,99532.95
2023-02-03T22:14:21.288Z,99536.62
2023-02-03T22:16:52.189Z,99543.27
2023-02-03T22:19:23.073Z,99548.93
2023-02-03T22:21:53.887Z,99557.96
2023-02-03T22:24:24.594Z,99564.35
2023-02-03T22:27:00.242Z,99566.53
2023-02-03T22:29:30.990Z,99568.70
2023-02-03T22:32:01.959Z,99568.70
2023-02-03T22:34:32.727Z,99569.15
2023-02-03T22:37:03.516Z,99565.88
2023-02-03T22:39:34.350Z,99574.23
2023-02-03T22:42:05.326Z,99576.87
2023-02-03T22:44:36.054Z,99579.68
2023-02-03T22:47:07.462Z,99574.60
2023-02-03T22:49:38.624Z,99577.80
2023-02-03T22:52:09.437Z,99578.02
2023-02-03T22:54:40.157Z,99581.23
2023-02-03T22:57:11.122Z,99582.41
2023-02-03T22:59:41.892Z,99588.45
2023-02-03T23:02:12.626Z,99593.13
2023-02-03T23:04:43.445Z,99601.14
2023-02-03T23:07:14.381Z,99608.80
2023-02-03T23:09:45.509Z,99612.96
2023-02-03T23:12:16.518Z,99615.45
2023-02-03T23:14:47.386Z,99617.77
2023-02-03T23:17:18.286Z,99625.84
2023-02-03T23:19:49.063Z,99630.66
2023-02-03T23:22:19.996Z,99638.52
2023-02-03T23:24:50.704Z,99644.88
2023-02-03T23:27:21.577Z,99651.14
2023-02-03T23:29:52.363Z,99669.08
2023-02-03T23:32:23.294Z,99676.74
2023-02-03T23:35:11.886Z,99689.98
2023-02-03T23:37:42.589Z,99696.67
2023-02-03T23:40:14.576Z,99702.04
2023-02-03T23:42:45.380Z,99704.38
2023-02-03T23:45:16.405Z,99705.55
2023-02-03T23:47:48.220Z,99701.86
2023-02-03T23:50:20.591Z,99709.73
2023-02-03T23:52:51.504Z,99713.37
2023-02-03T23:55:23.570Z,99716.31
2023-02-03T23:57:54.288Z,99720.63
